Pagina principală
METAR-TAF:

METAR-TAF

Aeroporturi :

Kindersley, Saskatchewan, Canada

Latitudine: 51-31N, longitudine: 109-10W, elevație: 694 m

Observații meteo curente

Raportul a fost făcut în urmă cu 32 de minute, la 22:00 UTC
Vânt 5 kt de la Nord/Nord-est, variabil între Vest/Nord-vest și Est/Nord-est
Temperatură 23°C
Umiditate 41%
Presiune 1013 hPa
Vizibilitate: 24.1 km
Nori puțini la o înălțime de 5000 picior

METAR: CYKY 222200Z 02005KT 290V060 15SM FEW050 23/09 A2991 RMK CU1 SLP130 DENSITY ALT 3700FT

Ora: 16:32 (22:32 UTC)


TAF: lipsă

Observații și prognoze meteo pentru peste 4.000 de aeroporturi (rapoarte METAR și TAF).

Stațiile disponibile sunt reprezentate pe hartă prin puncte galbene și roșii.

Țineți indicatorul mouse-ului pe punctul dorit pentru a vedea denumirea stației.

Apoi, faceți clic pentru a vedea observațiile și prognozele meteorologice.

Pentru a schimba harta: Pentru mărire, faceți clic pe butoanele verzi cu cruce neagră; pentru micșorare, pe butonul verde cu o liniuță; pentru hărți învecinate, pe săgețile verzi.


METAR-TAF: